createdAt,value
2023-03-31T00:01:08.460Z,9.84
2023-03-31T00:03:38.931Z,9.88
2023-03-31T00:06:07.069Z,9.94
2023-03-31T00:08:37.434Z,9.94
2023-03-31T00:11:09.680Z,9.96
2023-03-31T00:13:37.724Z,10.02
2023-03-31T00:16:10.407Z,10.05
2023-03-31T00:18:38.147Z,10.18
2023-03-31T00:21:14.796Z,10.25
2023-03-31T00:23:42.527Z,10.25
2023-03-31T00:26:10.023Z,10.28
2023-03-31T00:28:37.496Z,10.26
2023-03-31T00:31:05.378Z,10.20
2023-03-31T00:33:32.967Z,10.16
2023-03-31T00:36:02.480Z,10.15
2023-03-31T00:38:30.398Z,10.11
2023-03-31T00:40:59.470Z,10.11
2023-03-31T00:43:32.454Z,10.10
2023-03-31T00:46:23.283Z,10.18
2023-03-31T00:48:54.285Z,10.23
2023-03-31T00:51:23.004Z,10.23
2023-03-31T00:53:59.867Z,10.27
2023-03-31T00:56:31.895Z,10.24
2023-03-31T00:59:03.784Z,10.21
2023-03-31T01:01:31.761Z,10.27
2023-03-31T01:03:59.672Z,10.14
2023-03-31T01:06:31.105Z,9.90
2023-03-31T01:08:58.951Z,9.75
2023-03-31T01:11:30.634Z,9.48
2023-03-31T01:13:58.886Z,9.46
2023-03-31T01:16:26.346Z,9.49
2023-03-31T01:18:57.568Z,9.32
2023-03-31T01:21:47.378Z,9.30
2023-03-31T01:25:01.694Z,9.26
2023-03-31T01:27:48.936Z,9.25
2023-03-31T01:30:40.819Z,9.34
2023-03-31T01:33:23.880Z,9.36
2023-03-31T01:35:54.339Z,9.33
2023-03-31T01:38:33.911Z,9.28
2023-03-31T01:41:48.092Z,9.38
2023-03-31T01:44:46.709Z,9.41
2023-03-31T01:47:41.422Z,9.45
2023-03-31T01:50:16.486Z,9.30
2023-03-31T01:52:51.671Z,9.40
2023-03-31T01:55:24.553Z,9.46
2023-03-31T01:58:19.368Z,9.49
2023-03-31T02:00:58.396Z,9.44
2023-03-31T02:03:33.166Z,9.53
2023-03-31T02:06:09.336Z,9.59
2023-03-31T02:08:43.434Z,9.40
2023-03-31T02:11:11.282Z,9.49
2023-03-31T02:13:41.927Z,9.47
2023-03-31T02:16:19.147Z,9.48
2023-03-31T02:18:48.390Z,9.52
2023-03-31T02:21:16.979Z,9.39
2023-03-31T02:23:45.911Z,9.42
2023-03-31T02:26:18.997Z,9.35
2023-03-31T02:28:47.065Z,9.31
2023-03-31T02:31:24.107Z,9.40
2023-03-31T02:33:52.218Z,9.25
2023-03-31T02:36:21.627Z,9.27
2023-03-31T02:38:55.540Z,9.34
2023-03-31T02:41:23.669Z,9.41
2023-03-31T02:43:51.323Z,9.28
2023-03-31T02:46:19.290Z,9.43
2023-03-31T02:48:54.814Z,9.31
2023-03-31T02:51:55.024Z,9.21
2023-03-31T02:54:43.806Z,9.12
2023-03-31T02:57:49.998Z,9.03
2023-03-31T03:00:42.010Z,8.95
2023-03-31T03:03:51.668Z,8.96
2023-03-31T03:06:53.976Z,8.92
2023-03-31T03:09:32.801Z,8.93
2023-03-31T03:12:09.025Z,9.00
2023-03-31T03:14:42.587Z,9.08
2023-03-31T03:17:32.321Z,9.04
2023-03-31T03:20:01.996Z,9.11
2023-03-31T03:22:29.622Z,9.10
2023-03-31T03:24:57.552Z,9.10
2023-03-31T03:27:25.146Z,9.05
2023-03-31T03:29:52.746Z,9.12
2023-03-31T03:32:20.464Z,9.17
2023-03-31T03:34:47.969Z,9.04
2023-03-31T03:37:15.418Z,9.16
2023-03-31T03:39:43.001Z,9.24
2023-03-31T03:42:10.657Z,9.09
2023-03-31T03:44:38.111Z,9.23
2023-03-31T03:47:05.943Z,9.22
2023-03-31T03:49:33.458Z,9.30
2023-03-31T03:52:01.188Z,9.27
2023-03-31T03:54:28.693Z,9.26
2023-03-31T03:56:56.282Z,9.22
2023-03-31T03:59:23.973Z,9.30
2023-03-31T04:01:52.884Z,9.22
2023-03-31T04:04:20.518Z,9.10
2023-03-31T04:06:47.892Z,9.40
2023-03-31T04:09:15.717Z,9.42
2023-03-31T04:11:43.434Z,9.38
2023-03-31T04:14:10.825Z,9.42
2023-03-31T04:16:38.578Z,9.41
2023-03-31T04:19:06.943Z,9.37
2023-03-31T04:21:37.356Z,9.34
2023-03-31T04:24:05.194Z,9.38
2023-03-31T04:26:43.922Z,9.28
2023-03-31T04:29:13.338Z,9.40
2023-03-31T04:31:44.493Z,9.35
2023-03-31T04:34:15.018Z,9.47
2023-03-31T04:36:47.900Z,9.47
2023-03-31T04:39:30.914Z,9.47
2023-03-31T04:41:59.717Z,9.47
2023-03-31T04:44:27.623Z,9.44
2023-03-31T04:46:56.183Z,9.45
2023-03-31T04:49:23.769Z,9.36
2023-03-31T04:51:51.238Z,9.44
2023-03-31T04:54:18.914Z,9.40
2023-03-31T04:56:46.669Z,9.44
2023-03-31T04:59:14.223Z,9.52
2023-03-31T05:01:45.032Z,9.54
2023-03-31T05:04:12.664Z,9.52
2023-03-31T05:06:40.238Z,9.55
2023-03-31T05:09:09.813Z,9.40
2023-03-31T05:11:38.380Z,9.54
2023-03-31T05:14:06.184Z,9.50
2023-03-31T05:16:33.727Z,9.56
2023-03-31T05:19:01.304Z,9.51
2023-03-31T05:21:30.721Z,9.60
2023-03-31T05:23:58.414Z,9.59
2023-03-31T05:26:26.240Z,9.61
2023-03-31T05:28:54.550Z,9.59
2023-03-31T05:31:22.353Z,9.63
2023-03-31T05:33:50.074Z,9.51
2023-03-31T05:36:18.730Z,9.60
2023-03-31T05:38:47.719Z,9.53
2023-03-31T05:41:16.968Z,9.74
2023-03-31T05:43:44.630Z,9.81
2023-03-31T05:46:12.394Z,9.82
2023-03-31T05:48:39.924Z,9.81
2023-03-31T05:51:08.658Z,9.79
2023-03-31T05:53:36.244Z,9.75
2023-03-31T05:56:07.328Z,9.84
2023-03-31T05:58:36.400Z,9.77
2023-03-31T06:01:07.364Z,9.91
2023-03-31T06:03:37.229Z,9.91
2023-03-31T06:06:05.624Z,9.95
2023-03-31T06:08:33.169Z,9.99
2023-03-31T06:11:04.231Z,10.01
2023-03-31T06:13:32.126Z,10.08
2023-03-31T06:16:00.956Z,10.04
2023-03-31T06:18:30.547Z,10.03
2023-03-31T06:20:58.960Z,9.99
2023-03-31T06:23:27.276Z,10.03
2023-03-31T06:25:55.064Z,9.89
2023-03-31T06:28:22.640Z,9.97
2023-03-31T06:30:50.269Z,9.99
2023-03-31T06:33:17.773Z,9.90
2023-03-31T06:35:45.796Z,9.93
2023-03-31T06:38:13.565Z,9.93
2023-03-31T06:40:42.622Z,9.91
2023-03-31T06:43:10.456Z,9.90
2023-03-31T06:45:38.107Z,9.94
2023-03-31T06:48:06.440Z,9.92
2023-03-31T06:50:33.985Z,9.97
2023-03-31T06:53:01.733Z,9.90
2023-03-31T06:55:29.293Z,9.99
2023-03-31T06:57:56.797Z,9.86
2023-03-31T07:00:26.010Z,10.03
2023-03-31T07:02:54.591Z,10.03
2023-03-31T07:05:27.558Z,9.99
2023-03-31T07:07:57.137Z,9.87
2023-03-31T07:10:27.307Z,10.04
2023-03-31T07:12:55.077Z,9.91
2023-03-31T07:15:23.268Z,10.11
2023-03-31T07:17:51.286Z,10.22
2023-03-31T07:20:20.508Z,10.45
2023-03-31T07:22:49.172Z,10.23
2023-03-31T07:25:17.840Z,10.41
2023-03-31T07:27:45.397Z,10.51
2023-03-31T07:30:16.522Z,10.39
2023-03-31T07:32:47.038Z,10.35
2023-03-31T07:35:15.026Z,10.33
2023-03-31T07:37:45.460Z,10.47
2023-03-31T07:40:21.723Z,10.33
2023-03-31T07:42:52.255Z,10.41
2023-03-31T07:45:22.965Z,10.33
2023-03-31T07:47:51.148Z,10.28
2023-03-31T07:50:19.457Z,10.51
2023-03-31T07:52:48.629Z,10.32
2023-03-31T07:55:16.805Z,10.45
2023-03-31T07:57:46.238Z,10.42
2023-03-31T08:00:15.896Z,10.59
2023-03-31T08:02:44.630Z,10.81
2023-03-31T08:05:14.418Z,10.85
2023-03-31T08:07:44.957Z,10.79
2023-03-31T08:10:21.425Z,10.80
2023-03-31T08:12:48.921Z,10.75
2023-03-31T08:15:16.859Z,10.74
2023-03-31T08:17:44.900Z,10.50
2023-03-31T08:20:12.980Z,10.48
2023-03-31T08:22:41.340Z,10.57
2023-03-31T08:25:09.473Z,10.64
2023-03-31T08:27:39.856Z,10.67
2023-03-31T08:30:10.758Z,10.61
2023-03-31T08:32:46.512Z,10.71
2023-03-31T08:35:14.320Z,10.66
2023-03-31T08:37:41.839Z,10.77
2023-03-31T08:40:17.054Z,10.86
2023-03-31T08:42:53.734Z,10.73
2023-03-31T08:45:26.430Z,10.86
2023-03-31T08:47:59.388Z,10.93
2023-03-31T08:50:36.931Z,10.98
2023-03-31T08:53:09.516Z,10.92
2023-03-31T08:55:46.751Z,10.99
2023-03-31T08:58:14.209Z,11.07
2023-03-31T09:00:51.933Z,11.07
2023-03-31T09:03:26.187Z,10.93
2023-03-31T09:06:02.096Z,11.04
2023-03-31T09:08:38.323Z,11.06
2023-03-31T09:11:30.320Z,10.98
2023-03-31T09:14:21.028Z,11.09
2023-03-31T09:16:57.040Z,10.99
2023-03-31T09:19:32.268Z,10.97
2023-03-31T09:22:01.753Z,10.99
2023-03-31T09:24:33.476Z,10.98
2023-03-31T09:27:05.693Z,11.08
2023-03-31T09:29:52.118Z,11.19
2023-03-31T09:32:29.299Z,11.29
2023-03-31T09:35:21.669Z,11.18
2023-03-31T09:37:49.800Z,11.20
2023-03-31T09:40:20.213Z,11.30
2023-03-31T09:43:05.393Z,11.13
2023-03-31T09:45:34.144Z,11.12
2023-03-31T09:48:07.022Z,11.20
2023-03-31T09:50:44.598Z,11.18
2023-03-31T09:53:30.231Z,11.32
2023-03-31T09:56:03.675Z,11.24
2023-03-31T09:58:31.856Z,11.51
2023-03-31T10:01:09.598Z,11.53
2023-03-31T10:03:52.731Z,11.54
2023-03-31T10:06:21.491Z,11.60
2023-03-31T10:08:56.649Z,11.54
2023-03-31T10:11:25.154Z,11.42
2023-03-31T10:14:14.869Z,11.58
2023-03-31T10:16:54.461Z,11.66
2023-03-31T10:19:27.912Z,11.65
2023-03-31T10:21:58.738Z,11.62
2023-03-31T10:24:27.812Z,11.66
2023-03-31T10:26:57.575Z,11.57
2023-03-31T10:29:32.510Z,11.66
2023-03-31T10:32:27.308Z,11.88
2023-03-31T10:34:56.839Z,11.97
2023-03-31T10:37:28.182Z,12.04
2023-03-31T10:40:01.996Z,11.93
2023-03-31T10:42:29.745Z,11.83
2023-03-31T10:45:35.826Z,11.90
2023-03-31T10:48:05.630Z,11.96
2023-03-31T10:50:36.176Z,12.10
2023-03-31T10:53:06.513Z,12.18
2023-03-31T10:55:46.387Z,12.17
2023-03-31T10:58:19.933Z,12.23
2023-03-31T11:00:59.284Z,12.24
2023-03-31T11:03:30.413Z,12.27
2023-03-31T11:06:28.387Z,12.25
2023-03-31T11:09:16.192Z,12.39
2023-03-31T11:12:08.169Z,12.41
2023-03-31T11:14:47.882Z,12.64
2023-03-31T11:17:36.402Z,12.61
2023-03-31T11:20:30.297Z,12.91
2023-03-31T11:23:18.629Z,12.91
2023-03-31T11:26:12.238Z,13.06
2023-03-31T11:29:05.971Z,13.36
2023-03-31T11:31:43.967Z,13.61
2023-03-31T11:34:35.935Z,13.78
2023-03-31T11:37:35.583Z,13.86
2023-03-31T11:40:10.194Z,14.03
2023-03-31T11:43:17.013Z,13.83
2023-03-31T11:46:13.496Z,13.91
2023-03-31T11:48:47.351Z,13.92
2023-03-31T11:51:26.637Z,14.16
2023-03-31T11:53:58.734Z,14.21
2023-03-31T11:56:36.739Z,14.28
2023-03-31T11:59:07.796Z,14.48
2023-03-31T12:01:44.764Z,14.45
2023-03-31T12:04:23.717Z,14.48
2023-03-31T12:06:55.595Z,14.36
2023-03-31T12:09:38.871Z,14.39
2023-03-31T12:12:29.631Z,14.29
2023-03-31T12:15:11.416Z,14.36
2023-03-31T12:17:43.775Z,14.55
2023-03-31T12:20:34.579Z,14.31
2023-03-31T12:23:06.558Z,14.47
2023-03-31T12:25:49.813Z,14.31
2023-03-31T12:28:19.818Z,14.48
2023-03-31T12:30:53.123Z,14.54
2023-03-31T12:33:31.540Z,14.61
2023-03-31T12:36:36.399Z,14.68
2023-03-31T12:39:16.260Z,14.76
2023-03-31T12:42:29.313Z,14.49
2023-03-31T12:45:20.605Z,14.30
2023-03-31T12:48:03.614Z,14.36
2023-03-31T12:51:03.910Z,14.38
2023-03-31T12:54:00.681Z,14.32
2023-03-31T12:56:28.453Z,14.33
2023-03-31T12:59:19.327Z,14.55
2023-03-31T13:02:26.411Z,14.31
2023-03-31T13:04:54.285Z,14.42
2023-03-31T13:07:29.217Z,14.49
2023-03-31T13:09:59.129Z,14.55
2023-03-31T13:12:31.319Z,14.47
2023-03-31T13:15:02.136Z,14.56
2023-03-31T13:17:36.076Z,14.49
2023-03-31T13:20:28.278Z,14.64
2023-03-31T13:23:21.151Z,14.75
2023-03-31T13:25:53.301Z,14.53
2023-03-31T13:28:24.138Z,14.72
2023-03-31T13:31:04.054Z,14.60
2023-03-31T13:33:41.468Z,14.35
2023-03-31T13:36:34.617Z,14.59
2023-03-31T13:39:26.993Z,14.43
2023-03-31T13:42:19.419Z,14.52
2023-03-31T13:45:19.839Z,14.52
2023-03-31T13:48:04.205Z,14.44
2023-03-31T13:50:57.332Z,14.49
2023-03-31T13:53:48.522Z,14.38
2023-03-31T13:56:44.872Z,14.24
2023-03-31T13:59:38.429Z,14.45
2023-03-31T14:02:37.447Z,14.44
2023-03-31T14:05:32.505Z,14.43
2023-03-31T14:08:08.522Z,14.40
2023-03-31T14:10:38.457Z,14.32
2023-03-31T14:13:18.941Z,14.36
2023-03-31T14:15:59.290Z,14.30
2023-03-31T14:18:30.667Z,14.43
2023-03-31T14:21:29.769Z,14.51
2023-03-31T14:24:13.277Z,14.56
2023-03-31T14:26:53.648Z,14.64
2023-03-31T14:29:29.547Z,14.54
2023-03-31T14:31:57.356Z,14.57
2023-03-31T14:34:42.837Z,14.34
2023-03-31T14:37:13.923Z,14.21
2023-03-31T14:39:55.194Z,14.08
2023-03-31T14:42:27.242Z,14.14
2023-03-31T14:45:02.224Z,14.12
2023-03-31T14:47:30.541Z,14.20
2023-03-31T14:50:16.486Z,14.22
2023-03-31T14:52:52.508Z,14.21
2023-03-31T14:55:26.668Z,14.30
2023-03-31T14:58:01.787Z,14.21
2023-03-31T15:00:33.456Z,14.21
2023-03-31T15:03:05.974Z,14.19
2023-03-31T15:05:36.929Z,14.12
2023-03-31T15:08:08.404Z,14.17
2023-03-31T15:10:39.429Z,14.26
2023-03-31T15:13:15.899Z,14.14
2023-03-31T15:15:46.306Z,14.12
2023-03-31T15:18:15.849Z,14.11
2023-03-31T15:20:45.518Z,14.18
2023-03-31T15:23:30.894Z,14.00
2023-03-31T15:26:11.102Z,13.99
2023-03-31T15:28:56.654Z,14.06
2023-03-31T15:31:27.177Z,14.09
2023-03-31T15:33:54.970Z,13.96
2023-03-31T15:36:23.688Z,13.89
2023-03-31T15:38:58.097Z,13.74
2023-03-31T15:41:31.974Z,13.73
2023-03-31T15:44:08.247Z,13.72
2023-03-31T15:46:38.917Z,13.75
2023-03-31T15:49:23.890Z,13.60
2023-03-31T15:51:53.298Z,13.45
2023-03-31T15:54:29.672Z,13.74
2023-03-31T15:57:00.834Z,13.62
2023-03-31T15:59:41.743Z,13.79
2023-03-31T16:02:22.511Z,13.68
2023-03-31T16:04:54.700Z,13.56
2023-03-31T16:07:27.224Z,13.61
2023-03-31T16:10:09.531Z,13.46
2023-03-31T16:12:49.175Z,13.47
2023-03-31T16:15:25.118Z,13.49
2023-03-31T16:18:00.292Z,13.50
2023-03-31T16:20:32.920Z,13.37
2023-03-31T16:23:01.198Z,13.35
2023-03-31T16:25:31.633Z,13.26
2023-03-31T16:28:02.121Z,13.25
2023-03-31T16:30:40.464Z,13.38
2023-03-31T16:33:11.265Z,13.39
2023-03-31T16:35:42.132Z,13.39
2023-03-31T16:38:13.213Z,13.38
2023-03-31T16:40:43.315Z,13.31
2023-03-31T16:43:18.457Z,13.17
2023-03-31T16:45:48.329Z,13.06
2023-03-31T16:48:17.679Z,12.98
2023-03-31T16:50:47.840Z,13.03
2023-03-31T16:53:20.063Z,12.98
2023-03-31T16:55:49.891Z,12.95
2023-03-31T16:58:18.911Z,12.81
2023-03-31T17:00:47.861Z,12.97
2023-03-31T17:03:16.715Z,12.74
2023-03-31T17:05:47.601Z,12.92
2023-03-31T17:08:15.791Z,13.04
2023-03-31T17:10:52.343Z,13.28
2023-03-31T17:13:20.698Z,13.08
2023-03-31T17:15:49.495Z,12.81
2023-03-31T17:18:17.492Z,12.73
2023-03-31T17:20:45.700Z,12.69
2023-03-31T17:23:13.923Z,12.59
2023-03-31T17:25:48.451Z,12.28
2023-03-31T17:28:16.081Z,12.07
2023-03-31T17:30:44.492Z,12.00
2023-03-31T17:33:12.691Z,11.85
2023-03-31T17:35:40.615Z,11.70
2023-03-31T17:38:09.871Z,11.60
2023-03-31T17:40:37.872Z,11.48
2023-03-31T17:43:06.205Z,11.37
2023-03-31T17:45:34.876Z,11.21
2023-03-31T17:51:21.346Z,11.00
2023-03-31T17:53:49.435Z,10.87
2023-03-31T17:56:17.801Z,10.69
2023-03-31T17:58:46.847Z,10.68
2023-03-31T18:01:14.604Z,10.65
2023-03-31T18:03:42.366Z,10.31
2023-03-31T18:06:12.937Z,10.37
2023-03-31T18:08:42.721Z,10.32
2023-03-31T18:11:10.734Z,10.30
2023-03-31T18:13:39.187Z,10.39
2023-03-31T18:16:13.111Z,10.27
2023-03-31T18:18:42.408Z,10.21
2023-03-31T18:21:13.184Z,10.21
2023-03-31T18:23:41.409Z,9.99
2023-03-31T18:26:12.008Z,10.22
2023-03-31T18:28:41.141Z,10.17
2023-03-31T18:31:09.826Z,10.01
2023-03-31T18:33:38.033Z,9.95
2023-03-31T18:36:07.844Z,9.91
2023-03-31T18:38:38.324Z,10.00
2023-03-31T18:41:06.758Z,9.94
2023-03-31T18:43:34.798Z,10.03
2023-03-31T18:46:03.322Z,10.13
2023-03-31T18:48:30.810Z,10.27
2023-03-31T18:50:58.520Z,10.20
2023-03-31T18:53:26.135Z,10.01
2023-03-31T18:55:59.565Z,10.09
2023-03-31T18:58:31.348Z,10.07
2023-03-31T19:01:01.282Z,10.12
2023-03-31T19:03:29.428Z,10.09
2023-03-31T19:06:04.779Z,10.13
2023-03-31T19:08:32.417Z,9.88
2023-03-31T19:11:11.453Z,9.89
2023-03-31T19:13:42.141Z,9.87
2023-03-31T19:16:15.353Z,9.72
2023-03-31T19:18:43.811Z,9.52
2023-03-31T19:21:14.992Z,9.66
2023-03-31T19:23:43.100Z,9.64
2023-03-31T19:26:16.062Z,9.87
2023-03-31T19:28:43.809Z,9.94
2023-03-31T19:31:11.924Z,9.84
2023-03-31T19:33:39.763Z,10.04
2023-03-31T19:36:08.085Z,9.99
2023-03-31T19:38:36.914Z,9.97
2023-03-31T19:41:06.657Z,10.03
2023-03-31T19:43:34.627Z,10.11
2023-03-31T19:46:02.951Z,10.05
2023-03-31T19:48:36.279Z,9.95
2023-03-31T19:51:08.579Z,9.83
2023-03-31T19:53:39.844Z,9.70
2023-03-31T19:56:16.790Z,9.52
2023-03-31T19:58:44.710Z,9.50
2023-03-31T20:01:18.953Z,9.46
2023-03-31T20:03:46.989Z,9.48
2023-03-31T20:06:14.941Z,9.48
2023-03-31T20:08:43.884Z,9.29
2023-03-31T20:11:14.271Z,9.29
2023-03-31T20:13:43.230Z,9.42
2023-03-31T20:16:14.262Z,9.28
2023-03-31T20:18:47.932Z,9.34
2023-03-31T20:21:18.383Z,9.24
2023-03-31T20:23:46.962Z,9.06
2023-03-31T20:26:17.516Z,9.13
2023-03-31T20:28:46.801Z,9.07
2023-03-31T20:31:23.402Z,9.15
2023-03-31T20:33:53.491Z,9.06
2023-03-31T20:36:23.808Z,9.07
2023-03-31T20:38:53.305Z,9.12
2023-03-31T20:41:24.045Z,9.12
2023-03-31T20:43:52.130Z,9.16
2023-03-31T20:46:20.020Z,9.17
2023-03-31T20:48:51.329Z,9.06
2023-03-31T20:51:22.143Z,9.07
2023-03-31T20:53:53.023Z,9.11
2023-03-31T20:56:23.759Z,9.11
2023-03-31T20:58:53.591Z,9.28
2023-03-31T21:01:22.285Z,9.20
2023-03-31T21:03:53.343Z,9.20
2023-03-31T21:06:21.004Z,9.36
2023-03-31T21:08:52.390Z,9.26
2023-03-31T21:11:20.737Z,9.41
2023-03-31T21:13:48.899Z,9.41
2023-03-31T21:16:17.546Z,9.42
2023-03-31T21:18:45.162Z,9.49
2023-03-31T21:21:16.032Z,9.52
2023-03-31T21:23:43.697Z,9.61
2023-03-31T21:26:14.574Z,9.58
2023-03-31T21:28:43.181Z,9.61
2023-03-31T21:31:19.878Z,9.49
2023-03-31T21:33:47.566Z,9.59
2023-03-31T21:36:17.995Z,9.52
2023-03-31T21:38:45.804Z,9.49
2023-03-31T21:41:19.309Z,9.14
2023-03-31T21:43:47.249Z,9.23
2023-03-31T21:46:33.847Z,9.35
2023-03-31T21:49:02.648Z,9.19
2023-03-31T21:51:30.087Z,9.08
2023-03-31T21:53:57.985Z,8.93
2023-03-31T21:56:27.790Z,8.90
2023-03-31T21:58:55.674Z,8.71
2023-03-31T22:01:23.601Z,8.71
2023-03-31T22:03:52.026Z,8.66
2023-03-31T22:06:20.127Z,8.76
2023-03-31T22:08:47.649Z,8.77
2023-03-31T22:11:16.086Z,8.63
2023-03-31T22:13:43.704Z,8.76
2023-03-31T22:16:17.671Z,8.68
2023-03-31T22:18:47.275Z,8.59
2023-03-31T22:21:17.651Z,8.34
2023-03-31T22:23:45.502Z,8.49
2023-03-31T22:26:13.396Z,8.33
2023-03-31T22:28:41.292Z,8.27
2023-03-31T22:31:09.203Z,8.41
2023-03-31T22:33:36.937Z,8.34
2023-03-31T22:36:04.802Z,8.31
2023-03-31T22:38:32.268Z,8.09
2023-03-31T22:40:59.894Z,8.03
2023-03-31T22:43:27.790Z,8.05
2023-03-31T22:45:55.546Z,8.12
2023-03-31T22:48:23.162Z,7.93
2023-03-31T22:50:50.694Z,8.04
2023-03-31T22:53:18.222Z,7.97
2023-03-31T22:55:53.941Z,7.97
2023-03-31T22:58:22.857Z,7.70
2023-03-31T23:00:58.405Z,7.77
2023-03-31T23:03:26.509Z,7.89
2023-03-31T23:05:54.193Z,7.90
2023-03-31T23:08:22.126Z,7.85
2023-03-31T23:11:00.806Z,7.72
2023-03-31T23:13:29.789Z,7.72
2023-03-31T23:16:02.718Z,7.83
2023-03-31T23:18:30.533Z,7.77
2023-03-31T23:20:58.123Z,7.73
2023-03-31T23:23:25.994Z,7.69
2023-03-31T23:25:53.514Z,7.70
2023-03-31T23:28:21.065Z,7.44
2023-03-31T23:30:54.005Z,7.59
2023-03-31T23:33:21.564Z,7.61
2023-03-31T23:35:49.790Z,7.67
2023-03-31T23:38:17.406Z,7.66
2023-03-31T23:40:46.521Z,7.50
2023-03-31T23:43:14.789Z,7.58
2023-03-31T23:45:43.241Z,7.70
2023-03-31T23:48:11.018Z,7.46
2023-03-31T23:50:38.726Z,7.49
2023-03-31T23:53:07.329Z,7.50
2023-03-31T23:55:35.182Z,7.34
2023-03-31T23:58:03.503Z,7.43
